sensor_id;sensor_type;location;lat;lon;timestamp;P1;durP1;ratioP1;P2;durP2;ratioP2
34876;SDS011;21086;44.780;17.194;2023-06-01T00:01:17;7.57;;;4.65;;
34876;SDS011;21086;44.780;17.194;2023-06-01T00:03:47;5.32;;;4.47;;
34876;SDS011;21086;44.780;17.194;2023-06-01T00:06:15;8.05;;;4.72;;
34876;SDS011;21086;44.780;17.194;2023-06-01T00:14:14;5.00;;;4.20;;
34876;SDS011;21086;44.780;17.194;2023-06-01T00:16:42;4.93;;;4.43;;
34876;SDS011;21086;44.780;17.194;2023-06-01T00:19:11;5.95;;;4.78;;
34876;SDS011;21086;44.780;17.194;2023-06-01T00:21:39;6.40;;;4.78;;
34876;SDS011;21086;44.780;17.194;2023-06-01T00:24:08;7.70;;;4.93;;
34876;SDS011;21086;44.780;17.194;2023-06-01T00:26:35;7.30;;;4.95;;
34876;SDS011;21086;44.780;17.194;2023-06-01T00:29:02;6.93;;;4.28;;
34876;SDS011;21086;44.780;17.194;2023-06-01T00:31:29;6.40;;;4.63;;
34876;SDS011;21086;44.780;17.194;2023-06-01T00:33:57;5.45;;;4.60;;
34876;SDS011;21086;44.780;17.194;2023-06-01T00:36:24;6.15;;;4.93;;
34876;SDS011;21086;44.780;17.194;2023-06-01T00:38:51;5.25;;;4.30;;
34876;SDS011;21086;44.780;17.194;2023-06-01T00:41:19;5.18;;;4.30;;
34876;SDS011;21086;44.780;17.194;2023-06-01T00:43:47;7.13;;;4.60;;
34876;SDS011;21086;44.780;17.194;2023-06-01T00:46:14;6.68;;;4.53;;
34876;SDS011;21086;44.780;17.194;2023-06-01T00:48:41;5.72;;;4.07;;
34876;SDS011;21086;44.780;17.194;2023-06-01T00:51:09;7.53;;;3.92;;
34876;SDS011;21086;44.780;17.194;2023-06-01T00:59:11;7.75;;;4.93;;
34876;SDS011;21086;44.780;17.194;2023-06-01T01:45:34;5.05;;;4.25;;
34876;SDS011;21086;44.780;17.194;2023-06-01T01:50:52;6.45;;;4.22;;
34876;SDS011;21086;44.780;17.194;2023-06-01T01:53:24;4.80;;;4.00;;
34876;SDS011;21086;44.780;17.194;2023-06-01T01:55:53;4.70;;;4.28;;
34876;SDS011;21086;44.780;17.194;2023-06-01T01:58:23;4.70;;;4.20;;
34876;SDS011;21086;44.780;17.194;2023-06-01T02:00:53;5.40;;;4.85;;
34876;SDS011;21086;44.780;17.194;2023-06-01T02:14:24;5.60;;;4.75;;
34876;SDS011;21086;44.780;17.194;2023-06-01T02:16:51;8.98;;;5.13;;
34876;SDS011;21086;44.780;17.194;2023-06-01T03:00:56;4.72;;;3.83;;
34876;SDS011;21086;44.780;17.194;2023-06-01T03:03:24;5.15;;;4.03;;
34876;SDS011;21086;44.780;17.194;2023-06-01T03:05:54;5.10;;;4.35;;
34876;SDS011;21086;44.780;17.194;2023-06-01T03:10:57;5.50;;;4.80;;
34876;SDS011;21086;44.780;17.194;2023-06-01T03:13:25;5.40;;;4.90;;
34876;SDS011;21086;44.780;17.194;2023-06-01T03:15:52;7.75;;;4.47;;
34876;SDS011;21086;44.780;17.194;2023-06-01T03:18:19;5.95;;;5.28;;
34876;SDS011;21086;44.780;17.194;2023-06-01T03:20:47;6.63;;;6.03;;
34876;SDS011;21086;44.780;17.194;2023-06-01T03:23:15;6.35;;;5.70;;
34876;SDS011;21086;44.780;17.194;2023-06-01T03:25:43;6.60;;;5.90;;
34876;SDS011;21086;44.780;17.194;2023-06-01T03:28:10;6.13;;;5.30;;
34876;SDS011;21086;44.780;17.194;2023-06-01T03:30:38;8.35;;;7.20;;
34876;SDS011;21086;44.780;17.194;2023-06-01T03:33:05;8.93;;;6.68;;
34876;SDS011;21086;44.780;17.194;2023-06-01T03:35:34;7.22;;;6.07;;
34876;SDS011;21086;44.780;17.194;2023-06-01T03:38:01;8.60;;;5.80;;
34876;SDS011;21086;44.780;17.194;2023-06-01T03:40:28;6.38;;;5.78;;
34876;SDS011;21086;44.780;17.194;2023-06-01T03:42:55;7.07;;;6.38;;
34876;SDS011;21086;44.780;17.194;2023-06-01T03:45:23;7.82;;;5.57;;
34876;SDS011;21086;44.780;17.194;2023-06-01T03:47:50;9.77;;;5.45;;
34876;SDS011;21086;44.780;17.194;2023-06-01T03:50:20;6.05;;;5.43;;
34876;SDS011;21086;44.780;17.194;2023-06-01T03:55:33;7.22;;;5.53;;
34876;SDS011;21086;44.780;17.194;2023-06-01T03:58:01;7.22;;;5.10;;
34876;SDS011;21086;44.780;17.194;2023-06-01T04:00:29;6.43;;;5.00;;
34876;SDS011;21086;44.780;17.194;2023-06-01T04:02:57;7.90;;;5.15;;
34876;SDS011;21086;44.780;17.194;2023-06-01T04:05:25;5.13;;;4.63;;
34876;SDS011;21086;44.780;17.194;2023-06-01T04:07:56;7.72;;;5.72;;
34876;SDS011;21086;44.780;17.194;2023-06-01T04:10:24;6.45;;;4.65;;
34876;SDS011;21086;44.780;17.194;2023-06-01T04:56:46;5.65;;;4.57;;
34876;SDS011;21086;44.780;17.194;2023-06-01T04:59:13;7.28;;;4.43;;
34876;SDS011;21086;44.780;17.194;2023-06-01T05:01:41;7.47;;;4.75;;
34876;SDS011;21086;44.780;17.194;2023-06-01T05:04:08;5.15;;;4.15;;
34876;SDS011;21086;44.780;17.194;2023-06-01T05:06:35;5.38;;;4.13;;
34876;SDS011;21086;44.780;17.194;2023-06-01T05:09:03;5.30;;;4.68;;
34876;SDS011;21086;44.780;17.194;2023-06-01T05:11:31;5.95;;;4.75;;
34876;SDS011;21086;44.780;17.194;2023-06-01T05:13:58;5.03;;;4.15;;
34876;SDS011;21086;44.780;17.194;2023-06-01T05:16:29;4.88;;;4.38;;
34876;SDS011;21086;44.780;17.194;2023-06-01T05:18:57;5.30;;;4.70;;
34876;SDS011;21086;44.780;17.194;2023-06-01T05:21:24;6.07;;;4.40;;
34876;SDS011;21086;44.780;17.194;2023-06-01T06:06:52;4.10;;;3.65;;
34876;SDS011;21086;44.780;17.194;2023-06-01T06:25:43;4.90;;;4.13;;
34876;SDS011;21086;44.780;17.194;2023-06-01T06:28:12;5.60;;;3.92;;
34876;SDS011;21086;44.780;17.194;2023-06-01T06:30:40;5.13;;;4.20;;
34876;SDS011;21086;44.780;17.194;2023-06-01T06:33:07;4.80;;;4.07;;
34876;SDS011;21086;44.780;17.194;2023-06-01T06:35:40;4.55;;;3.90;;
34876;SDS011;21086;44.780;17.194;2023-06-01T06:38:08;5.30;;;4.00;;
34876;SDS011;21086;44.780;17.194;2023-06-01T06:40:36;4.45;;;3.50;;
34876;SDS011;21086;44.780;17.194;2023-06-01T06:43:03;4.20;;;3.75;;
34876;SDS011;21086;44.780;17.194;2023-06-01T06:45:30;6.03;;;4.32;;
34876;SDS011;21086;44.780;17.194;2023-06-01T06:47:57;5.10;;;3.30;;
34876;SDS011;21086;44.780;17.194;2023-06-01T06:50:24;4.60;;;3.47;;
34876;SDS011;21086;44.780;17.194;2023-06-01T06:52:51;5.40;;;3.70;;
34876;SDS011;21086;44.780;17.194;2023-06-01T06:55:19;7.20;;;4.00;;
34876;SDS011;21086;44.780;17.194;2023-06-01T06:57:47;6.32;;;3.88;;
34876;SDS011;21086;44.780;17.194;2023-06-01T07:00:14;6.95;;;4.10;;
34876;SDS011;21086;44.780;17.194;2023-06-01T07:02:41;5.40;;;3.80;;
34876;SDS011;21086;44.780;17.194;2023-06-01T07:05:11;4.28;;;3.88;;
34876;SDS011;21086;44.780;17.194;2023-06-01T07:07:39;4.78;;;3.88;;
34876;SDS011;21086;44.780;17.194;2023-06-01T07:10:07;7.53;;;4.00;;
34876;SDS011;21086;44.780;17.194;2023-06-01T07:12:34;4.13;;;3.72;;
34876;SDS011;21086;44.780;17.194;2023-06-01T07:15:02;4.55;;;3.75;;
34876;SDS011;21086;44.780;17.194;2023-06-01T07:17:29;4.35;;;3.85;;
34876;SDS011;21086;44.780;17.194;2023-06-01T07:19:57;4.75;;;3.67;;
34876;SDS011;21086;44.780;17.194;2023-06-01T07:22:26;4.47;;;3.80;;
34876;SDS011;21086;44.780;17.194;2023-06-01T07:24:53;4.20;;;3.80;;
34876;SDS011;21086;44.780;17.194;2023-06-01T07:27:20;4.30;;;3.90;;
34876;SDS011;21086;44.780;17.194;2023-06-01T07:29:47;4.60;;;3.92;;
34876;SDS011;21086;44.780;17.194;2023-06-01T07:32:15;4.78;;;4.00;;
34876;SDS011;21086;44.780;17.194;2023-06-01T07:34:43;5.68;;;4.10;;
34876;SDS011;21086;44.780;17.194;2023-06-01T07:37:10;8.73;;;4.38;;
34876;SDS011;21086;44.780;17.194;2023-06-01T07:39:43;4.80;;;4.20;;
34876;SDS011;21086;44.780;17.194;2023-06-01T07:42:10;5.18;;;4.30;;
34876;SDS011;21086;44.780;17.194;2023-06-01T07:44:37;5.43;;;4.55;;
34876;SDS011;21086;44.780;17.194;2023-06-01T07:47:05;5.68;;;4.35;;
34876;SDS011;21086;44.780;17.194;2023-06-01T07:49:32;6.20;;;4.22;;
34876;SDS011;21086;44.780;17.194;2023-06-01T07:52:02;5.18;;;4.50;;
34876;SDS011;21086;44.780;17.194;2023-06-01T07:54:32;8.27;;;4.70;;
34876;SDS011;21086;44.780;17.194;2023-06-01T07:57:00;6.70;;;5.00;;
34876;SDS011;21086;44.780;17.194;2023-06-01T07:59:30;6.50;;;4.85;;
34876;SDS011;21086;44.780;17.194;2023-06-01T08:02:00;6.03;;;4.47;;
34876;SDS011;21086;44.780;17.194;2023-06-01T08:04:28;5.97;;;4.50;;
34876;SDS011;21086;44.780;17.194;2023-06-01T08:07:00;4.43;;;4.03;;
34876;SDS011;21086;44.780;17.194;2023-06-01T08:09:33;4.18;;;3.78;;
34876;SDS011;21086;44.780;17.194;2023-06-01T08:12:01;5.18;;;4.13;;
34876;SDS011;21086;44.780;17.194;2023-06-01T08:14:28;5.22;;;4.43;;
34876;SDS011;21086;44.780;17.194;2023-06-01T08:16:58;7.85;;;6.32;;
34876;SDS011;21086;44.780;17.194;2023-06-01T08:19:27;5.18;;;4.35;;
34876;SDS011;21086;44.780;17.194;2023-06-01T08:21:54;5.90;;;4.45;;
34876;SDS011;21086;44.780;17.194;2023-06-01T08:24:22;4.95;;;4.35;;
34876;SDS011;21086;44.780;17.194;2023-06-01T08:26:54;7.50;;;4.15;;
34876;SDS011;21086;44.780;17.194;2023-06-01T08:29:25;5.65;;;4.72;;
34876;SDS011;21086;44.780;17.194;2023-06-01T08:32:08;4.88;;;4.38;;
34876;SDS011;21086;44.780;17.194;2023-06-01T08:34:36;7.28;;;4.90;;
34876;SDS011;21086;44.780;17.194;2023-06-01T08:37:03;5.28;;;4.65;;
34876;SDS011;21086;44.780;17.194;2023-06-01T08:39:30;7.22;;;4.82;;
34876;SDS011;21086;44.780;17.194;2023-06-01T08:42:20;5.50;;;4.72;;
34876;SDS011;21086;44.780;17.194;2023-06-01T08:44:53;11.45;;;4.47;;
34876;SDS011;21086;44.780;17.194;2023-06-01T08:47:22;4.57;;;4.13;;
34876;SDS011;21086;44.780;17.194;2023-06-01T08:49:51;5.57;;;5.00;;
34876;SDS011;21086;44.780;17.194;2023-06-01T08:52:20;5.47;;;4.82;;
34876;SDS011;21086;44.780;17.194;2023-06-01T08:54:49;5.72;;;5.03;;
34876;SDS011;21086;44.780;17.194;2023-06-01T08:57:17;4.15;;;3.75;;
34876;SDS011;21086;44.780;17.194;2023-06-01T08:59:46;5.60;;;4.72;;
34876;SDS011;21086;44.780;17.194;2023-06-01T09:02:13;5.13;;;4.60;;
34876;SDS011;21086;44.780;17.194;2023-06-01T09:04:41;5.22;;;4.72;;
34876;SDS011;21086;44.780;17.194;2023-06-01T09:07:11;4.97;;;4.47;;
34876;SDS011;21086;44.780;17.194;2023-06-01T09:09:39;6.78;;;4.72;;
34876;SDS011;21086;44.780;17.194;2023-06-01T09:14:47;6.65;;;4.70;;
34876;SDS011;21086;44.780;17.194;2023-06-01T09:17:15;7.57;;;4.60;;
34876;SDS011;21086;44.780;17.194;2023-06-01T09:19:50;5.38;;;4.78;;
34876;SDS011;21086;44.780;17.194;2023-06-01T09:22:21;6.10;;;4.40;;
34876;SDS011;21086;44.780;17.194;2023-06-01T09:24:58;4.97;;;4.47;;
34876;SDS011;21086;44.780;17.194;2023-06-01T09:27:26;5.13;;;4.13;;
34876;SDS011;21086;44.780;17.194;2023-06-01T09:29:57;5.25;;;4.22;;
34876;SDS011;21086;44.780;17.194;2023-06-01T09:32:27;10.05;;;4.05;;
34876;SDS011;21086;44.780;17.194;2023-06-01T09:34:54;4.93;;;3.95;;
34876;SDS011;21086;44.780;17.194;2023-06-01T09:37:22;6.07;;;4.57;;
34876;SDS011;21086;44.780;17.194;2023-06-01T09:39:49;4.80;;;3.67;;
34876;SDS011;21086;44.780;17.194;2023-06-01T09:42:16;4.72;;;4.22;;
34876;SDS011;21086;44.780;17.194;2023-06-01T09:44:44;4.88;;;3.83;;
34876;SDS011;21086;44.780;17.194;2023-06-01T09:47:11;5.63;;;4.50;;
34876;SDS011;21086;44.780;17.194;2023-06-01T09:49:41;4.72;;;4.25;;
34876;SDS011;21086;44.780;17.194;2023-06-01T09:52:11;6.28;;;4.40;;
34876;SDS011;21086;44.780;17.194;2023-06-01T09:54:43;5.75;;;3.78;;
34876;SDS011;21086;44.780;17.194;2023-06-01T09:57:22;4.93;;;4.43;;
34876;SDS011;21086;44.780;17.194;2023-06-01T09:59:55;5.63;;;4.20;;
34876;SDS011;21086;44.780;17.194;2023-06-01T10:02:23;4.70;;;3.75;;
34876;SDS011;21086;44.780;17.194;2023-06-01T10:04:52;4.07;;;3.58;;
34876;SDS011;21086;44.780;17.194;2023-06-01T10:07:22;4.65;;;4.03;;
34876;SDS011;21086;44.780;17.194;2023-06-01T10:09:51;5.05;;;4.18;;
34876;SDS011;21086;44.780;17.194;2023-06-01T10:12:21;5.78;;;4.30;;
34876;SDS011;21086;44.780;17.194;2023-06-01T10:14:51;6.93;;;4.30;;
34876;SDS011;21086;44.780;17.194;2023-06-01T10:17:19;5.85;;;4.00;;
34876;SDS011;21086;44.780;17.194;2023-06-01T10:19:48;4.07;;;3.67;;
34876;SDS011;21086;44.780;17.194;2023-06-01T10:22:15;4.78;;;4.07;;
34876;SDS011;21086;44.780;17.194;2023-06-01T10:24:43;4.88;;;4.05;;
34876;SDS011;21086;44.780;17.194;2023-06-01T10:29:48;6.03;;;4.10;;
34876;SDS011;21086;44.780;17.194;2023-06-01T10:35:04;4.65;;;3.90;;
34876;SDS011;21086;44.780;17.194;2023-06-01T10:37:32;4.75;;;3.38;;
34876;SDS011;21086;44.780;17.194;2023-06-01T10:42:56;4.05;;;3.65;;
34876;SDS011;21086;44.780;17.194;2023-06-01T10:45:39;5.53;;;3.67;;
34876;SDS011;21086;44.780;17.194;2023-06-01T10:48:08;7.88;;;3.70;;
34876;SDS011;21086;44.780;17.194;2023-06-01T10:50:39;5.00;;;4.13;;
34876;SDS011;21086;44.780;17.194;2023-06-01T11:01:39;3.42;;;2.75;;
34876;SDS011;21086;44.780;17.194;2023-06-01T11:04:08;5.75;;;2.60;;
34876;SDS011;21086;44.780;17.194;2023-06-01T11:06:36;3.95;;;2.67;;
34876;SDS011;21086;44.780;17.194;2023-06-01T11:09:06;4.07;;;2.83;;
34876;SDS011;21086;44.780;17.194;2023-06-01T11:14:15;5.40;;;2.35;;
34876;SDS011;21086;44.780;17.194;2023-06-01T11:16:44;3.17;;;2.78;;
34876;SDS011;21086;44.780;17.194;2023-06-01T11:19:17;2.70;;;2.40;;
34876;SDS011;21086;44.780;17.194;2023-06-01T11:21:47;5.63;;;2.85;;
34876;SDS011;21086;44.780;17.194;2023-06-01T11:24:16;3.28;;;2.67;;
34876;SDS011;21086;44.780;17.194;2023-06-01T11:26:47;3.75;;;2.88;;
34876;SDS011;21086;44.780;17.194;2023-06-01T11:29:21;6.13;;;2.70;;
34876;SDS011;21086;44.780;17.194;2023-06-01T11:31:57;5.13;;;2.50;;
34876;SDS011;21086;44.780;17.194;2023-06-01T11:34:35;7.22;;;2.90;;
34876;SDS011;21086;44.780;17.194;2023-06-01T11:37:14;7.65;;;2.45;;
34876;SDS011;21086;44.780;17.194;2023-06-01T11:39:43;6.68;;;2.78;;
34876;SDS011;21086;44.780;17.194;2023-06-01T11:44:42;4.13;;;2.50;;
34876;SDS011;21086;44.780;17.194;2023-06-01T11:47:11;3.35;;;2.10;;
34876;SDS011;21086;44.780;17.194;2023-06-01T11:49:46;3.85;;;2.30;;
34876;SDS011;21086;44.780;17.194;2023-06-01T11:52:16;4.07;;;3.00;;
34876;SDS011;21086;44.780;17.194;2023-06-01T11:54:44;5.13;;;2.47;;
34876;SDS011;21086;44.780;17.194;2023-06-01T11:57:12;4.20;;;2.47;;
34876;SDS011;21086;44.780;17.194;2023-06-01T11:59:43;4.65;;;2.75;;
34876;SDS011;21086;44.780;17.194;2023-06-01T12:02:18;3.15;;;2.47;;
34876;SDS011;21086;44.780;17.194;2023-06-01T12:04:59;3.08;;;2.30;;
34876;SDS011;21086;44.780;17.194;2023-06-01T12:07:43;3.22;;;2.50;;
34876;SDS011;21086;44.780;17.194;2023-06-01T12:10:11;4.75;;;2.65;;
34876;SDS011;21086;44.780;17.194;2023-06-01T12:12:42;4.88;;;2.40;;
34876;SDS011;21086;44.780;17.194;2023-06-01T12:15:10;3.58;;;2.28;;
34876;SDS011;21086;44.780;17.194;2023-06-01T12:17:46;3.97;;;2.40;;
34876;SDS011;21086;44.780;17.194;2023-06-01T12:22:57;4.50;;;2.17;;
34876;SDS011;21086;44.780;17.194;2023-06-01T12:25:25;4.10;;;2.67;;
34876;SDS011;21086;44.780;17.194;2023-06-01T12:27:59;3.85;;;2.55;;
34876;SDS011;21086;44.780;17.194;2023-06-01T12:30:33;4.53;;;2.22;;
34876;SDS011;21086;44.780;17.194;2023-06-01T12:33:00;3.20;;;2.40;;
34876;SDS011;21086;44.780;17.194;2023-06-01T12:35:31;2.72;;;2.20;;
34876;SDS011;21086;44.780;17.194;2023-06-01T12:38:04;2.55;;;2.10;;
34876;SDS011;21086;44.780;17.194;2023-06-01T12:40:33;6.72;;;2.50;;
34876;SDS011;21086;44.780;17.194;2023-06-01T12:43:01;4.95;;;2.55;;
34876;SDS011;21086;44.780;17.194;2023-06-01T12:45:35;4.65;;;2.55;;
34876;SDS011;21086;44.780;17.194;2023-06-01T12:48:03;3.00;;;2.30;;
34876;SDS011;21086;44.780;17.194;2023-06-01T12:50:33;3.40;;;2.08;;
34876;SDS011;21086;44.780;17.194;2023-06-01T12:53:08;5.43;;;2.63;;
34876;SDS011;21086;44.780;17.194;2023-06-01T12:55:35;2.72;;;2.30;;
34876;SDS011;21086;44.780;17.194;2023-06-01T12:58:02;6.88;;;2.60;;
34876;SDS011;21086;44.780;17.194;2023-06-01T13:00:30;2.80;;;2.40;;
34876;SDS011;21086;44.780;17.194;2023-06-01T13:03:16;3.17;;;2.38;;
34876;SDS011;21086;44.780;17.194;2023-06-01T13:05:44;2.88;;;2.40;;
34876;SDS011;21086;44.780;17.194;2023-06-01T13:08:15;2.38;;;2.17;;
34876;SDS011;21086;44.780;17.194;2023-06-01T13:10:43;3.42;;;2.25;;
34876;SDS011;21086;44.780;17.194;2023-06-01T13:13:10;3.22;;;2.63;;
34876;SDS011;21086;44.780;17.194;2023-06-01T13:15:39;3.05;;;2.60;;
34876;SDS011;21086;44.780;17.194;2023-06-01T13:18:07;2.80;;;2.30;;
34876;SDS011;21086;44.780;17.194;2023-06-01T13:20:35;5.50;;;2.65;;
34876;SDS011;21086;44.780;17.194;2023-06-01T13:23:08;3.72;;;2.58;;
34876;SDS011;21086;44.780;17.194;2023-06-01T13:25:39;4.47;;;2.70;;
34876;SDS011;21086;44.780;17.194;2023-06-01T13:28:06;3.33;;;2.38;;
34876;SDS011;21086;44.780;17.194;2023-06-01T13:30:34;4.30;;;2.78;;
34876;SDS011;21086;44.780;17.194;2023-06-01T13:33:02;3.08;;;2.45;;
34876;SDS011;21086;44.780;17.194;2023-06-01T13:35:29;4.53;;;2.72;;
34876;SDS011;21086;44.780;17.194;2023-06-01T13:37:56;3.33;;;2.45;;
34876;SDS011;21086;44.780;17.194;2023-06-01T13:40:24;2.40;;;2.20;;
34876;SDS011;21086;44.780;17.194;2023-06-01T13:42:52;4.22;;;2.60;;
34876;SDS011;21086;44.780;17.194;2023-06-01T13:45:20;3.90;;;2.67;;
34876;SDS011;21086;44.780;17.194;2023-06-01T13:47:48;3.72;;;2.35;;
34876;SDS011;21086;44.780;17.194;2023-06-01T13:50:17;6.07;;;2.28;;
34876;SDS011;21086;44.780;17.194;2023-06-01T13:52:44;4.20;;;2.42;;
34876;SDS011;21086;44.780;17.194;2023-06-01T13:55:12;3.53;;;2.47;;
34876;SDS011;21086;44.780;17.194;2023-06-01T13:57:48;4.78;;;2.67;;
34876;SDS011;21086;44.780;17.194;2023-06-01T14:00:15;3.85;;;2.40;;
34876;SDS011;21086;44.780;17.194;2023-06-01T14:02:46;4.60;;;2.35;;
34876;SDS011;21086;44.780;17.194;2023-06-01T14:05:13;3.35;;;2.50;;
34876;SDS011;21086;44.780;17.194;2023-06-01T14:07:46;8.05;;;2.50;;
34876;SDS011;21086;44.780;17.194;2023-06-01T14:10:13;2.95;;;2.38;;
34876;SDS011;21086;44.780;17.194;2023-06-01T14:12:43;3.95;;;1.75;;
34876;SDS011;21086;44.780;17.194;2023-06-01T14:15:11;2.85;;;2.25;;
34876;SDS011;21086;44.780;17.194;2023-06-01T14:17:38;3.10;;;2.30;;
34876;SDS011;21086;44.780;17.194;2023-06-01T14:20:06;2.53;;;2.17;;
34876;SDS011;21086;44.780;17.194;2023-06-01T14:22:33;3.03;;;2.28;;
34876;SDS011;21086;44.780;17.194;2023-06-01T14:25:00;4.18;;;2.30;;
34876;SDS011;21086;44.780;17.194;2023-06-01T14:27:27;3.67;;;2.55;;
34876;SDS011;21086;44.780;17.194;2023-06-01T14:29:54;3.28;;;2.33;;
34876;SDS011;21086;44.780;17.194;2023-06-01T14:32:21;3.30;;;2.13;;
34876;SDS011;21086;44.780;17.194;2023-06-01T14:34:49;3.65;;;2.30;;
34876;SDS011;21086;44.780;17.194;2023-06-01T14:37:16;3.17;;;2.70;;
34876;SDS011;21086;44.780;17.194;2023-06-01T14:39:44;3.72;;;2.60;;
34876;SDS011;21086;44.780;17.194;2023-06-01T14:42:12;3.10;;;2.72;;
34876;SDS011;21086;44.780;17.194;2023-06-01T14:44:40;4.97;;;2.80;;
34876;SDS011;21086;44.780;17.194;2023-06-01T14:47:12;3.30;;;3.00;;
34876;SDS011;21086;44.780;17.194;2023-06-01T14:49:41;4.75;;;3.40;;
34876;SDS011;21086;44.780;17.194;2023-06-01T14:52:13;5.55;;;3.30;;
34876;SDS011;21086;44.780;17.194;2023-06-01T14:54:40;5.93;;;2.85;;
34876;SDS011;21086;44.780;17.194;2023-06-01T14:57:07;3.50;;;2.80;;
34876;SDS011;21086;44.780;17.194;2023-06-01T14:59:34;6.53;;;2.88;;
34876;SDS011;21086;44.780;17.194;2023-06-01T15:02:07;4.10;;;3.28;;
34876;SDS011;21086;44.780;17.194;2023-06-01T15:04:34;4.68;;;2.97;;
34876;SDS011;21086;44.780;17.194;2023-06-01T15:07:01;3.90;;;3.35;;
34876;SDS011;21086;44.780;17.194;2023-06-01T15:09:28;6.65;;;3.80;;
34876;SDS011;21086;44.780;17.194;2023-06-01T15:11:55;4.82;;;3.58;;
34876;SDS011;21086;44.780;17.194;2023-06-01T15:14:23;4.80;;;3.28;;
34876;SDS011;21086;44.780;17.194;2023-06-01T15:16:50;3.75;;;3.05;;
34876;SDS011;21086;44.780;17.194;2023-06-01T15:19:17;6.07;;;4.20;;
34876;SDS011;21086;44.780;17.194;2023-06-01T15:30:31;4.60;;;3.70;;
34876;SDS011;21086;44.780;17.194;2023-06-01T15:33:02;3.90;;;3.38;;
34876;SDS011;21086;44.780;17.194;2023-06-01T15:35:34;6.82;;;4.57;;
34876;SDS011;21086;44.780;17.194;2023-06-01T15:38:01;6.53;;;5.03;;
34876;SDS011;21086;44.780;17.194;2023-06-01T15:40:28;5.75;;;5.15;;
34876;SDS011;21086;44.780;17.194;2023-06-01T15:42:56;8.32;;;4.78;;
34876;SDS011;21086;44.780;17.194;2023-06-01T15:45:23;5.72;;;4.60;;
34876;SDS011;21086;44.780;17.194;2023-06-01T15:47:50;7.15;;;4.22;;
34876;SDS011;21086;44.780;17.194;2023-06-01T15:50:18;4.63;;;3.78;;
34876;SDS011;21086;44.780;17.194;2023-06-01T15:52:45;5.38;;;3.80;;
34876;SDS011;21086;44.780;17.194;2023-06-01T15:55:12;5.25;;;4.05;;
34876;SDS011;21086;44.780;17.194;2023-06-01T15:57:39;5.10;;;3.88;;
34876;SDS011;21086;44.780;17.194;2023-06-01T16:00:06;4.78;;;3.35;;
34876;SDS011;21086;44.780;17.194;2023-06-01T16:02:34;4.53;;;4.03;;
34876;SDS011;21086;44.780;17.194;2023-06-01T16:05:01;5.07;;;3.92;;
34876;SDS011;21086;44.780;17.194;2023-06-01T16:07:28;4.78;;;3.60;;
34876;SDS011;21086;44.780;17.194;2023-06-01T16:09:55;5.43;;;3.60;;
34876;SDS011;21086;44.780;17.194;2023-06-01T16:12:22;5.63;;;3.50;;
34876;SDS011;21086;44.780;17.194;2023-06-01T16:14:49;4.85;;;3.50;;
34876;SDS011;21086;44.780;17.194;2023-06-01T16:17:16;4.30;;;3.55;;
34876;SDS011;21086;44.780;17.194;2023-06-01T16:19:43;5.45;;;3.65;;
34876;SDS011;21086;44.780;17.194;2023-06-01T16:22:11;4.72;;;3.35;;
34876;SDS011;21086;44.780;17.194;2023-06-01T16:24:38;6.72;;;3.50;;
34876;SDS011;21086;44.780;17.194;2023-06-01T16:27:05;5.47;;;3.47;;
34876;SDS011;21086;44.780;17.194;2023-06-01T16:29:35;3.85;;;3.42;;
34876;SDS011;21086;44.780;17.194;2023-06-01T16:32:02;4.93;;;3.10;;
34876;SDS011;21086;44.780;17.194;2023-06-01T16:34:30;6.65;;;3.30;;
34876;SDS011;21086;44.780;17.194;2023-06-01T16:36:57;4.40;;;3.63;;
34876;SDS011;21086;44.780;17.194;2023-06-01T16:39:24;4.78;;;3.45;;
34876;SDS011;21086;44.780;17.194;2023-06-01T16:41:51;4.90;;;3.75;;
34876;SDS011;21086;44.780;17.194;2023-06-01T16:44:18;6.38;;;3.60;;
34876;SDS011;21086;44.780;17.194;2023-06-01T16:46:45;4.25;;;3.42;;
34876;SDS011;21086;44.780;17.194;2023-06-01T16:49:13;4.68;;;3.35;;
34876;SDS011;21086;44.780;17.194;2023-06-01T16:51:40;4.75;;;3.92;;
34876;SDS011;21086;44.780;17.194;2023-06-01T16:54:07;4.45;;;3.90;;
34876;SDS011;21086;44.780;17.194;2023-06-01T16:56:35;5.68;;;4.10;;
34876;SDS011;21086;44.780;17.194;2023-06-01T16:59:02;7.10;;;3.80;;
34876;SDS011;21086;44.780;17.194;2023-06-01T17:01:29;6.82;;;4.03;;
34876;SDS011;21086;44.780;17.194;2023-06-01T17:03:59;8.50;;;4.45;;
34876;SDS011;21086;44.780;17.194;2023-06-01T17:06:26;8.40;;;4.82;;
34876;SDS011;21086;44.780;17.194;2023-06-01T17:08:53;5.22;;;4.03;;
34876;SDS011;21086;44.780;17.194;2023-06-01T17:11:24;4.70;;;4.20;;
34876;SDS011;21086;44.780;17.194;2023-06-01T17:13:54;7.40;;;3.97;;
34876;SDS011;21086;44.780;17.194;2023-06-01T17:16:21;10.15;;;4.10;;
34876;SDS011;21086;44.780;17.194;2023-06-01T17:18:49;6.50;;;4.22;;
34876;SDS011;21086;44.780;17.194;2023-06-01T17:21:16;4.97;;;4.32;;
34876;SDS011;21086;44.780;17.194;2023-06-01T17:23:43;6.00;;;3.88;;
34876;SDS011;21086;44.780;17.194;2023-06-01T17:26:11;6.03;;;4.40;;
34876;SDS011;21086;44.780;17.194;2023-06-01T17:28:38;6.65;;;4.55;;
34876;SDS011;21086;44.780;17.194;2023-06-01T17:31:05;7.47;;;4.70;;
34876;SDS011;21086;44.780;17.194;2023-06-01T17:33:32;6.90;;;4.25;;
34876;SDS011;21086;44.780;17.194;2023-06-01T17:35:59;6.28;;;4.35;;
34876;SDS011;21086;44.780;17.194;2023-06-01T17:38:27;5.47;;;4.30;;
34876;SDS011;21086;44.780;17.194;2023-06-01T17:40:54;5.45;;;4.07;;
34876;SDS011;21086;44.780;17.194;2023-06-01T17:43:22;5.63;;;4.07;;
34876;SDS011;21086;44.780;17.194;2023-06-01T17:45:48;7.38;;;5.18;;
34876;SDS011;21086;44.780;17.194;2023-06-01T17:48:16;7.88;;;4.45;;
34876;SDS011;21086;44.780;17.194;2023-06-01T17:50:43;6.53;;;4.82;;
34876;SDS011;21086;44.780;17.194;2023-06-01T17:53:10;6.00;;;4.53;;
34876;SDS011;21086;44.780;17.194;2023-06-01T17:55:59;5.32;;;4.82;;
34876;SDS011;21086;44.780;17.194;2023-06-01T17:58:27;7.20;;;4.88;;
34876;SDS011;21086;44.780;17.194;2023-06-01T18:00:55;6.95;;;4.82;;
34876;SDS011;21086;44.780;17.194;2023-06-01T18:03:22;7.10;;;5.10;;
34876;SDS011;21086;44.780;17.194;2023-06-01T18:05:49;7.13;;;5.03;;
34876;SDS011;21086;44.780;17.194;2023-06-01T18:08:16;5.70;;;5.20;;
34876;SDS011;21086;44.780;17.194;2023-06-01T18:10:43;6.03;;;5.22;;
34876;SDS011;21086;44.780;17.194;2023-06-01T18:13:10;5.93;;;5.30;;
34876;SDS011;21086;44.780;17.194;2023-06-01T18:15:37;7.38;;;5.45;;
34876;SDS011;21086;44.780;17.194;2023-06-01T18:18:04;5.90;;;5.20;;
34876;SDS011;21086;44.780;17.194;2023-06-01T18:20:31;8.57;;;6.07;;
34876;SDS011;21086;44.780;17.194;2023-06-01T18:22:58;8.23;;;5.55;;
34876;SDS011;21086;44.780;17.194;2023-06-01T18:25:26;7.25;;;6.03;;
34876;SDS011;21086;44.780;17.194;2023-06-01T18:27:53;12.80;;;6.13;;
34876;SDS011;21086;44.780;17.194;2023-06-01T18:30:20;7.05;;;5.47;;
34876;SDS011;21086;44.780;17.194;2023-06-01T18:32:47;11.82;;;6.20;;
34876;SDS011;21086;44.780;17.194;2023-06-01T18:35:14;10.13;;;5.90;;
34876;SDS011;21086;44.780;17.194;2023-06-01T18:37:41;11.70;;;6.40;;
34876;SDS011;21086;44.780;17.194;2023-06-01T18:40:09;8.43;;;6.22;;
34876;SDS011;21086;44.780;17.194;2023-06-01T18:42:37;9.55;;;6.43;;
34876;SDS011;21086;44.780;17.194;2023-06-01T18:45:04;9.05;;;7.18;;
34876;SDS011;21086;44.780;17.194;2023-06-01T18:47:32;10.57;;;6.75;;
34876;SDS011;21086;44.780;17.194;2023-06-01T18:49:59;8.05;;;6.50;;
34876;SDS011;21086;44.780;17.194;2023-06-01T18:52:26;7.20;;;6.18;;
34876;SDS011;21086;44.780;17.194;2023-06-01T18:54:56;9.05;;;6.88;;
34876;SDS011;21086;44.780;17.194;2023-06-01T18:57:23;8.32;;;7.05;;